createdAt,value
2023-01-12T00:02:14.261Z,19.57
2023-01-12T00:04:41.526Z,19.40
2023-01-12T00:07:12.279Z,20.33
2023-01-12T00:09:39.648Z,20.70
2023-01-12T00:12:11.025Z,20.53
2023-01-12T00:14:39.231Z,20.73
2023-01-12T00:17:06.597Z,18.50
2023-01-12T00:19:34.099Z,18.50
2023-01-12T00:22:05.857Z,18.23
2023-01-12T00:24:44.276Z,17.83
2023-01-12T00:27:18.246Z,17.57
2023-01-12T00:29:45.241Z,16.83
2023-01-12T00:32:15.852Z,16.73
2023-01-12T00:34:43.509Z,17.43
2023-01-12T00:37:11.332Z,16.90
2023-01-12T00:39:40.826Z,16.47
2023-01-12T00:42:30.983Z,16.57
2023-01-12T00:45:16.213Z,15.57
2023-01-12T00:47:43.726Z,15.80
2023-01-12T00:50:10.763Z,16.90
2023-01-12T00:52:37.730Z,16.30
2023-01-12T00:55:05.159Z,15.13
2023-01-12T00:57:32.235Z,15.20
2023-01-12T01:00:00.088Z,14.60
2023-01-12T01:02:28.700Z,14.53
2023-01-12T01:04:56.507Z,15.97
2023-01-12T01:07:23.811Z,15.00
2023-01-12T01:09:51.115Z,15.67
2023-01-12T01:12:18.499Z,15.00
2023-01-12T01:14:47.023Z,15.53
2023-01-12T01:17:13.922Z,15.03
2023-01-12T01:19:40.866Z,16.67
2023-01-12T01:22:07.855Z,14.73
2023-01-12T01:24:34.775Z,13.27
2023-01-12T01:27:01.669Z,14.73
2023-01-12T01:29:28.606Z,14.03
2023-01-12T01:31:55.975Z,14.00
2023-01-12T01:34:23.996Z,15.10
2023-01-12T01:36:51.028Z,16.60
2023-01-12T01:39:17.955Z,16.17
2023-01-12T01:41:44.902Z,15.53
2023-01-12T01:44:30.296Z,14.10
2023-01-12T01:47:22.069Z,14.50
2023-01-12T01:49:55.436Z,14.23
2023-01-12T01:52:37.253Z,15.40
2023-01-12T01:55:29.070Z,13.90
2023-01-12T01:58:01.428Z,15.40
2023-01-12T02:00:28.483Z,15.57
2023-01-12T02:02:57.091Z,15.10
2023-01-12T02:05:28.295Z,16.37
2023-01-12T02:08:01.269Z,15.97
2023-01-12T02:10:28.241Z,16.90
2023-01-12T02:13:13.564Z,15.00
2023-01-12T02:16:21.093Z,16.63
2023-01-12T02:19:23.744Z,14.83
2023-01-12T02:22:08.892Z,16.00
2023-01-12T02:25:13.311Z,17.57
2023-01-12T02:27:53.247Z,16.07
2023-01-12T02:31:06.804Z,16.50
2023-01-12T02:34:06.201Z,17.37
2023-01-12T02:36:51.991Z,15.33
2023-01-12T02:39:44.967Z,15.53
2023-01-12T02:42:44.063Z,15.27
2023-01-12T02:45:48.003Z,14.40
2023-01-12T02:48:27.801Z,15.57
2023-01-12T02:51:10.209Z,14.23
2023-01-12T02:54:10.998Z,13.50
2023-01-12T02:56:44.673Z,15.73
2023-01-12T02:59:35.579Z,15.10
2023-01-12T03:02:16.999Z,15.07
2023-01-12T03:04:44.241Z,15.27
2023-01-12T03:07:14.773Z,14.70
2023-01-12T03:09:45.742Z,15.00
2023-01-12T03:12:25.858Z,15.10
2023-01-12T03:14:55.547Z,14.30
2023-01-12T03:17:33.901Z,14.17
2023-01-12T03:20:12.544Z,15.00
2023-01-12T03:22:40.031Z,14.40
2023-01-12T03:25:13.477Z,15.20
2023-01-12T03:27:49.771Z,15.87
2023-01-12T03:30:30.632Z,15.50
2023-01-12T03:32:57.839Z,15.57
2023-01-12T03:35:28.402Z,16.07
2023-01-12T03:38:07.986Z,16.50
2023-01-12T03:40:43.876Z,15.17
2023-01-12T03:43:39.419Z,15.00
2023-01-12T03:46:22.696Z,14.93
2023-01-12T03:48:57.255Z,15.90
2023-01-12T03:51:29.150Z,15.50
2023-01-12T03:53:58.041Z,16.33
2023-01-12T03:56:29.860Z,15.10
2023-01-12T03:58:57.454Z,15.27
2023-01-12T04:01:24.381Z,14.93
2023-01-12T04:03:51.338Z,14.50
2023-01-12T04:06:18.315Z,14.70
2023-01-12T04:08:45.357Z,13.70
2023-01-12T04:11:30.570Z,14.47
2023-01-12T04:13:57.957Z,15.67
2023-01-12T04:16:25.000Z,15.33
2023-01-12T04:18:51.984Z,15.50
2023-01-12T04:21:37.177Z,15.23
2023-01-12T04:24:04.248Z,16.00
2023-01-12T04:26:31.123Z,15.80
2023-01-12T04:28:58.087Z,14.70
2023-01-12T04:31:25.129Z,14.37
2023-01-12T04:33:52.148Z,14.70
2023-01-12T04:36:19.129Z,14.07
2023-01-12T04:38:46.989Z,14.40
2023-01-12T04:41:13.964Z,14.77
2023-01-12T04:43:41.095Z,15.50
2023-01-12T04:46:10.586Z,14.90
2023-01-12T04:48:39.262Z,14.53
2023-01-12T04:51:06.584Z,15.20
2023-01-12T04:53:33.789Z,15.20
2023-01-12T04:56:05.571Z,14.03
2023-01-12T04:58:32.750Z,14.90
2023-01-12T05:01:10.376Z,14.83
2023-01-12T05:03:37.540Z,14.70
2023-01-12T05:06:05.219Z,15.20
2023-01-12T05:08:51.080Z,14.17
2023-01-12T05:11:18.172Z,23.30
2023-01-12T05:13:45.103Z,41.47
2023-01-12T05:16:17.799Z,46.23
2023-01-12T05:18:45.914Z,55.13
2023-01-12T05:21:15.700Z,35.03
2023-01-12T05:23:42.660Z,19.20
2023-01-12T05:26:11.227Z,16.40
2023-01-12T05:28:38.242Z,16.47
2023-01-12T05:31:13.957Z,16.60
2023-01-12T05:33:42.499Z,15.90
2023-01-12T05:36:12.930Z,16.80
2023-01-12T05:38:39.976Z,15.80
2023-01-12T05:41:10.135Z,17.77
2023-01-12T05:43:52.719Z,15.93
2023-01-12T05:46:41.210Z,15.20
2023-01-12T05:49:11.035Z,16.30
2023-01-12T05:51:38.041Z,15.97
2023-01-12T05:54:05.357Z,17.00
2023-01-12T05:56:33.994Z,21.33
2023-01-12T05:59:04.268Z,15.77
2023-01-12T06:01:32.242Z,16.67
2023-01-12T06:04:01.302Z,17.37
2023-01-12T06:06:31.207Z,15.27
2023-01-12T06:09:00.271Z,18.27
2023-01-12T06:11:45.675Z,16.87
2023-01-12T06:14:12.601Z,16.07
2023-01-12T06:16:42.696Z,16.20
2023-01-12T06:19:12.834Z,14.70
2023-01-12T06:21:40.949Z,16.83
2023-01-12T06:24:08.739Z,15.47
2023-01-12T06:26:35.909Z,18.27
2023-01-12T06:29:05.579Z,22.23
2023-01-12T06:31:33.159Z,19.20
2023-01-12T06:34:00.273Z,17.90
2023-01-12T06:36:32.194Z,15.60
2023-01-12T06:38:59.088Z,16.60
2023-01-12T06:41:44.269Z,15.80
2023-01-12T06:44:11.191Z,15.63
2023-01-12T06:46:38.189Z,17.20
2023-01-12T06:49:05.164Z,17.00
2023-01-12T06:51:32.134Z,16.20
2023-01-12T06:53:59.013Z,19.25
2023-01-12T06:56:25.993Z,17.70
2023-01-12T06:58:53.054Z,16.53
2023-01-12T07:01:20.291Z,16.30
2023-01-12T07:03:47.265Z,16.10
2023-01-12T07:06:14.484Z,17.07
2023-01-12T07:08:41.556Z,16.47
2023-01-12T07:11:08.731Z,16.00
2023-01-12T07:13:35.951Z,17.97
2023-01-12T07:16:03.055Z,16.10
2023-01-12T07:18:31.083Z,16.10
2023-01-12T07:20:58.529Z,15.00
2023-01-12T07:23:25.532Z,17.50
2023-01-12T07:25:52.544Z,16.40
2023-01-12T07:28:19.460Z,16.07
2023-01-12T07:30:46.437Z,16.00
2023-01-12T07:33:15.456Z,16.93
2023-01-12T07:35:43.840Z,17.90
2023-01-12T07:38:10.779Z,15.50
2023-01-12T07:40:37.854Z,15.53
2023-01-12T07:43:08.156Z,16.07
2023-01-12T07:45:36.577Z,17.37
2023-01-12T07:48:04.319Z,17.63
2023-01-12T07:50:31.378Z,18.47
2023-01-12T07:53:02.303Z,56.83
2023-01-12T07:55:31.419Z,53.30
2023-01-12T07:58:02.915Z,30.83
2023-01-12T08:00:31.045Z,20.33
2023-01-12T08:03:09.407Z,17.97
2023-01-12T08:05:38.036Z,17.70
2023-01-12T08:08:06.616Z,18.33
2023-01-12T08:10:33.598Z,18.67
2023-01-12T08:13:00.540Z,17.57
2023-01-12T08:15:32.987Z,17.73
2023-01-12T08:18:08.031Z,16.40
2023-01-12T08:20:36.617Z,16.40
2023-01-12T08:23:21.023Z,18.83
2023-01-12T08:25:57.107Z,18.07
2023-01-12T08:28:40.274Z,16.63
2023-01-12T08:31:11.026Z,21.50
2023-01-12T08:33:38.583Z,35.50
2023-01-12T08:36:09.635Z,21.20
2023-01-12T08:38:36.919Z,16.90
2023-01-12T08:41:22.800Z,16.03
2023-01-12T08:44:10.898Z,15.30
2023-01-12T08:46:52.281Z,15.97
2023-01-12T08:49:25.076Z,13.97
2023-01-12T08:51:52.097Z,14.40
2023-01-12T08:54:20.837Z,15.33
2023-01-12T08:56:49.282Z,20.20
2023-01-12T08:59:16.570Z,18.63
2023-01-12T09:01:43.645Z,16.00
2023-01-12T09:04:10.640Z,15.90
2023-01-12T09:06:41.510Z,14.70
2023-01-12T09:09:15.766Z,16.60
2023-01-12T09:11:44.556Z,15.53
2023-01-12T09:14:13.007Z,15.53
2023-01-12T09:16:40.588Z,16.50
2023-01-12T09:19:08.494Z,14.10
2023-01-12T09:21:39.134Z,16.03
2023-01-12T09:24:06.914Z,15.57
2023-01-12T09:26:43.082Z,17.57
2023-01-12T09:29:12.600Z,17.37
2023-01-12T09:31:43.462Z,16.30
2023-01-12T09:34:10.538Z,16.20
2023-01-12T09:36:40.287Z,16.90
2023-01-12T09:39:10.233Z,14.77
2023-01-12T09:42:04.684Z,12.93
2023-01-12T09:45:09.933Z,12.80
2023-01-12T09:47:53.649Z,12.40
2023-01-12T09:50:42.212Z,10.50
2023-01-12T09:53:31.611Z,12.00
2023-01-12T09:56:21.694Z,15.40
2023-01-12T09:59:22.640Z,14.60
2023-01-12T10:01:53.588Z,14.30
2023-01-12T10:04:21.068Z,13.57
2023-01-12T10:06:48.194Z,16.73
2023-01-12T10:09:22.768Z,13.97
2023-01-12T10:12:06.187Z,13.80
2023-01-12T10:14:32.977Z,12.33
2023-01-12T10:17:25.665Z,14.00
2023-01-12T10:20:19.699Z,12.10
2023-01-12T10:22:56.353Z,12.27
2023-01-12T10:25:48.683Z,14.73
2023-01-12T10:28:33.548Z,15.23
2023-01-12T10:31:02.595Z,16.10
2023-01-12T10:33:33.036Z,16.47
2023-01-12T10:36:19.700Z,18.33
2023-01-12T10:38:56.741Z,19.33
2023-01-12T10:41:29.176Z,19.73
2023-01-12T10:43:59.117Z,17.17
2023-01-12T10:46:32.354Z,35.97
2023-01-12T10:49:23.143Z,25.00
2023-01-12T10:52:28.952Z,18.00
2023-01-12T10:54:57.707Z,15.80
2023-01-12T10:57:25.870Z,15.83
2023-01-12T10:59:58.503Z,16.63
2023-01-12T11:02:28.977Z,15.27
2023-01-12T11:04:55.981Z,15.20
2023-01-12T11:07:30.990Z,14.60
2023-01-12T11:10:29.862Z,15.07
2023-01-12T11:13:03.620Z,14.77
2023-01-12T11:15:38.943Z,15.00
2023-01-12T11:18:24.443Z,14.17
2023-01-12T11:21:01.114Z,15.40
2023-01-12T11:24:05.580Z,13.83
2023-01-12T11:27:00.113Z,14.20
2023-01-12T11:29:38.563Z,14.87
2023-01-12T11:32:25.639Z,15.77
2023-01-12T11:35:24.232Z,14.93
2023-01-12T11:37:55.311Z,13.13
2023-01-12T11:40:35.250Z,15.30
2023-01-12T11:43:46.910Z,36.90
2023-01-12T11:46:26.723Z,19.90
2023-01-12T11:49:21.644Z,14.20
2023-01-12T11:51:52.075Z,14.57
2023-01-12T11:54:19.728Z,14.00
2023-01-12T11:56:58.224Z,14.67
2023-01-12T11:59:56.046Z,12.60
2023-01-12T12:02:37.570Z,12.70
2023-01-12T12:05:15.394Z,9.67
2023-01-12T12:08:24.271Z,7.90
2023-01-12T12:11:11.660Z,6.47
2023-01-12T12:14:18.342Z,7.70
2023-01-12T12:17:00.474Z,5.47
2023-01-12T12:19:56.625Z,2.47
2023-01-12T12:22:55.030Z,1.90
2023-01-12T12:25:54.940Z,1.40
2023-01-12T12:28:54.785Z,1.73
2023-01-12T12:31:42.262Z,1.60
2023-01-12T12:34:49.197Z,1.17
2023-01-12T12:37:38.024Z,1.87
2023-01-12T12:40:54.427Z,4.27
2023-01-12T12:43:50.048Z,3.80
2023-01-12T12:46:27.477Z,1.47
2023-01-12T12:49:15.792Z,1.50
2023-01-12T12:51:43.967Z,1.10
2023-01-12T12:54:18.443Z,1.63
2023-01-12T12:56:46.607Z,1.33
2023-01-12T12:59:40.855Z,1.60
2023-01-12T13:02:32.592Z,1.47
2023-01-12T13:05:05.031Z,2.03
2023-01-12T13:07:37.764Z,2.10
2023-01-12T13:10:30.717Z,1.87
2023-01-12T13:13:02.359Z,1.73
2023-01-12T13:15:36.763Z,1.27
2023-01-12T13:18:05.299Z,1.97
2023-01-12T13:20:53.270Z,1.37
2023-01-12T13:23:44.149Z,1.63
2023-01-12T13:26:32.989Z,2.20
2023-01-12T13:29:28.138Z,1.33
2023-01-12T13:32:23.049Z,1.77
2023-01-12T13:34:51.968Z,1.90
2023-01-12T13:37:18.839Z,1.73
2023-01-12T13:40:19.302Z,1.20
2023-01-12T13:43:13.687Z,2.03
2023-01-12T13:45:48.487Z,1.80
2023-01-12T13:48:19.043Z,2.43
2023-01-12T13:50:52.201Z,11.07
2023-01-12T13:53:28.753Z,2.40
2023-01-12T13:56:07.600Z,1.67
2023-01-12T13:58:42.528Z,2.47
2023-01-12T14:01:27.708Z,2.23
2023-01-12T14:04:13.489Z,1.90
2023-01-12T14:07:25.236Z,3.07
2023-01-12T14:10:30.368Z,1.73
2023-01-12T14:13:28.192Z,2.70
2023-01-12T14:16:28.768Z,2.00
2023-01-12T14:18:55.825Z,2.00
2023-01-12T14:21:37.767Z,2.63
2023-01-12T14:24:16.389Z,2.27
2023-01-12T14:26:43.717Z,2.60
2023-01-12T14:29:11.529Z,1.97
2023-01-12T14:31:45.372Z,2.37
2023-01-12T14:34:28.638Z,2.03
2023-01-12T14:36:56.377Z,2.10
2023-01-12T14:39:27.083Z,2.40
2023-01-12T14:42:16.115Z,2.23
2023-01-12T14:45:14.031Z,2.40
2023-01-12T14:47:41.964Z,4.07
2023-01-12T14:50:19.520Z,4.40
2023-01-12T14:52:48.557Z,5.50
2023-01-12T14:55:19.965Z,5.47
2023-01-12T14:57:54.366Z,4.33
2023-01-12T15:00:24.680Z,4.97
2023-01-12T15:03:35.161Z,4.37
2023-01-12T15:06:06.511Z,5.90
2023-01-12T15:08:34.805Z,5.30
2023-01-12T15:11:09.996Z,6.77
2023-01-12T15:13:38.062Z,6.90
2023-01-12T15:16:25.246Z,5.73
2023-01-12T15:19:10.649Z,5.37
2023-01-12T15:21:57.293Z,7.03
2023-01-12T15:24:49.940Z,6.27
2023-01-12T15:27:20.452Z,6.40
2023-01-12T15:29:48.302Z,7.60
2023-01-12T15:32:46.276Z,6.77
2023-01-12T15:35:26.523Z,7.07
2023-01-12T15:37:58.592Z,7.30
2023-01-12T15:40:27.282Z,7.97
2023-01-12T15:42:54.550Z,8.77
2023-01-12T15:45:36.047Z,9.03
2023-01-12T15:48:04.488Z,14.80
2023-01-12T15:50:33.307Z,17.47
2023-01-12T15:53:01.179Z,20.70
2023-01-12T15:55:35.774Z,18.90
2023-01-12T15:58:03.078Z,18.13
2023-01-12T16:00:30.879Z,16.50
2023-01-12T16:02:57.858Z,14.87
2023-01-12T16:05:26.432Z,18.23
2023-01-12T16:07:53.826Z,15.53
2023-01-12T16:10:20.982Z,10.43
2023-01-12T16:12:48.042Z,11.43
2023-01-12T16:15:21.906Z,12.20
2023-01-12T16:17:50.209Z,11.20
2023-01-12T16:20:19.895Z,13.20
2023-01-12T16:22:47.526Z,12.20
2023-01-12T16:25:15.534Z,14.00
2023-01-12T16:27:42.578Z,13.40
2023-01-12T16:30:15.070Z,13.53
2023-01-12T16:32:46.941Z,12.43
2023-01-12T16:35:15.672Z,12.30
2023-01-12T16:37:43.343Z,13.93
2023-01-12T16:40:11.468Z,12.30
2023-01-12T16:42:38.413Z,12.73
2023-01-12T16:45:06.295Z,13.73
2023-01-12T16:47:34.576Z,12.47
2023-01-12T16:50:01.608Z,12.13
2023-01-12T16:52:28.604Z,10.80
2023-01-12T16:54:55.587Z,11.03
2023-01-12T16:57:22.532Z,18.73
2023-01-12T16:59:49.707Z,14.10
2023-01-12T17:02:18.220Z,12.93
2023-01-12T17:04:47.851Z,13.33
2023-01-12T17:07:15.089Z,12.53
2023-01-12T17:09:42.229Z,12.10
2023-01-12T17:12:09.529Z,11.63
2023-01-12T17:14:36.844Z,10.37
2023-01-12T17:17:10.472Z,9.73
2023-01-12T17:19:39.746Z,17.27
2023-01-12T17:22:08.059Z,10.77
2023-01-12T17:24:39.624Z,8.70
2023-01-12T17:27:08.875Z,8.43
2023-01-12T17:29:36.370Z,9.07
2023-01-12T17:32:06.649Z,8.50
2023-01-12T17:34:39.053Z,9.87
2023-01-12T17:37:09.799Z,10.20
2023-01-12T17:39:42.862Z,9.40
2023-01-12T17:42:34.848Z,10.07
2023-01-12T17:45:03.818Z,10.30
2023-01-12T17:47:31.312Z,10.60
2023-01-12T17:49:58.336Z,10.43
2023-01-12T17:52:26.152Z,12.67
2023-01-12T17:54:53.147Z,12.40
2023-01-12T17:57:20.127Z,12.50
2023-01-12T17:59:47.056Z,14.60
2023-01-12T18:02:15.198Z,16.77
2023-01-12T18:04:42.407Z,13.40
2023-01-12T18:07:09.461Z,12.83
2023-01-12T18:09:37.173Z,11.87
2023-01-12T18:12:05.248Z,11.90
2023-01-12T18:14:32.325Z,12.33
2023-01-12T18:16:59.275Z,11.87
2023-01-12T18:19:26.276Z,13.57
2023-01-12T18:21:53.207Z,17.47
2023-01-12T18:24:20.121Z,15.60
2023-01-12T18:26:47.105Z,14.20
2023-01-12T18:29:14.061Z,12.83
2023-01-12T18:31:42.431Z,13.00
2023-01-12T18:34:11.131Z,14.60
2023-01-12T18:36:41.014Z,12.60
2023-01-12T18:39:13.548Z,12.30
2023-01-12T18:41:58.705Z,11.73
2023-01-12T18:44:26.075Z,12.20
2023-01-12T18:47:11.268Z,13.00
2023-01-12T18:49:41.308Z,13.63
2023-01-12T18:52:30.770Z,12.20
2023-01-12T18:54:58.933Z,11.27
2023-01-12T18:57:32.334Z,10.97
2023-01-12T19:00:19.996Z,12.20
2023-01-12T19:02:46.966Z,13.20
2023-01-12T19:05:17.643Z,14.53
2023-01-12T19:07:59.416Z,12.77
2023-01-12T19:10:28.619Z,12.30
2023-01-12T19:13:15.997Z,14.50
2023-01-12T19:16:01.166Z,14.27
2023-01-12T19:18:28.774Z,15.80
2023-01-12T19:21:21.783Z,18.20
2023-01-12T19:24:07.121Z,14.17
2023-01-12T19:26:52.372Z,15.30
2023-01-12T19:29:19.375Z,16.30
2023-01-12T19:31:46.298Z,16.30
2023-01-12T19:34:13.203Z,16.17
2023-01-12T19:36:40.146Z,22.37
2023-01-12T19:39:07.694Z,20.37
2023-01-12T19:41:53.040Z,16.27
2023-01-12T19:44:20.451Z,17.63
2023-01-12T19:46:47.891Z,16.17
2023-01-12T19:49:16.911Z,15.70
2023-01-12T19:51:46.047Z,15.17
2023-01-12T19:54:13.313Z,16.53
2023-01-12T19:56:40.289Z,16.40
2023-01-12T19:59:07.327Z,16.47
2023-01-12T20:01:34.441Z,14.50
2023-01-12T20:04:01.563Z,15.57
2023-01-12T20:06:28.913Z,14.30
2023-01-12T20:08:55.865Z,17.40
2023-01-12T20:11:22.785Z,15.60
2023-01-12T20:13:49.712Z,16.93
2023-01-12T20:16:16.737Z,20.67
2023-01-12T20:18:43.765Z,28.57
2023-01-12T20:21:12.401Z,30.00
2023-01-12T20:23:39.494Z,31.60
2023-01-12T20:26:08.760Z,33.13
2023-01-12T20:28:36.265Z,34.53
2023-01-12T20:31:14.262Z,32.30
2023-01-12T20:33:42.232Z,27.70
2023-01-12T20:36:15.010Z,30.10
2023-01-12T20:38:42.930Z,30.23
2023-01-12T20:41:11.135Z,28.60
2023-01-12T20:43:38.646Z,27.40
2023-01-12T20:46:11.323Z,26.13
2023-01-12T20:48:41.319Z,25.47
2023-01-12T20:51:13.922Z,30.57
2023-01-12T20:53:43.485Z,32.20
2023-01-12T20:56:10.912Z,31.27
2023-01-12T20:58:37.820Z,34.37
2023-01-12T21:01:14.191Z,34.60
2023-01-12T21:03:41.746Z,31.03
2023-01-12T21:06:15.991Z,30.50
2023-01-12T21:08:45.304Z,29.70
2023-01-12T21:11:15.229Z,27.80
2023-01-12T21:13:42.977Z,26.20
2023-01-12T21:16:15.433Z,24.00
2023-01-12T21:18:42.912Z,24.73
2023-01-12T21:21:10.852Z,24.57
2023-01-12T21:23:37.959Z,23.33
2023-01-12T21:26:08.157Z,23.90
2023-01-12T21:28:38.800Z,21.57
2023-01-12T21:31:08.572Z,21.10
2023-01-12T21:33:35.819Z,22.57
2023-01-12T21:36:03.179Z,22.43
2023-01-12T21:38:30.673Z,21.00
2023-01-12T21:41:03.305Z,20.47
2023-01-12T21:43:30.579Z,21.57
2023-01-12T21:46:06.113Z,21.90
2023-01-12T21:48:33.382Z,23.17
2023-01-12T21:51:10.071Z,23.30
2023-01-12T21:53:37.033Z,24.03
2023-01-12T21:56:05.398Z,22.53
2023-01-12T21:58:35.423Z,23.30
2023-01-12T22:01:10.106Z,21.47
2023-01-12T22:03:37.365Z,21.90
2023-01-12T22:06:07.621Z,21.63
2023-01-12T22:08:40.183Z,21.23
2023-01-12T22:11:15.406Z,20.93
2023-01-12T22:13:43.462Z,22.53
2023-01-12T22:16:14.157Z,22.47
2023-01-12T22:18:49.545Z,21.23
2023-01-12T22:21:18.673Z,22.10
2023-01-12T22:23:45.759Z,23.43
2023-01-12T22:26:14.982Z,22.33
2023-01-12T22:28:44.514Z,22.40
2023-01-12T22:31:23.558Z,22.60
2023-01-12T22:34:00.701Z,21.50
2023-01-12T22:36:27.706Z,20.00
2023-01-12T22:38:55.137Z,21.10
2023-01-12T22:41:22.638Z,20.33
2023-01-12T22:43:49.808Z,21.23
2023-01-12T22:46:20.903Z,21.57
2023-01-12T22:48:53.580Z,21.33
2023-01-12T22:51:24.802Z,22.20
2023-01-12T22:53:52.455Z,22.77
2023-01-12T22:56:19.933Z,22.13
2023-01-12T22:58:52.663Z,22.50
2023-01-12T23:01:21.398Z,20.67
2023-01-12T23:03:54.137Z,21.43
2023-01-12T23:06:22.410Z,21.70
2023-01-12T23:08:50.282Z,20.27
2023-01-12T23:11:24.860Z,19.90
2023-01-12T23:13:54.269Z,18.47
2023-01-12T23:16:21.784Z,17.43
2023-01-12T23:18:50.289Z,17.93
2023-01-12T23:21:37.010Z,18.80
2023-01-12T23:24:04.456Z,18.73
2023-01-12T23:26:33.266Z,18.47
2023-01-12T23:29:03.081Z,18.53
2023-01-12T23:31:33.552Z,19.43
2023-01-12T23:34:01.369Z,21.50
2023-01-12T23:36:29.863Z,22.13
2023-01-12T23:39:00.515Z,19.10
2023-01-12T23:41:30.124Z,19.43
2023-01-12T23:44:00.270Z,20.97
2023-01-12T23:46:29.582Z,19.70
2023-01-12T23:48:58.016Z,19.27
2023-01-12T23:51:27.470Z,18.23
2023-01-12T23:53:59.464Z,18.80
2023-01-12T23:56:32.327Z,18.20
2023-01-12T23:58:59.328Z,17.60
